Euro — C6AA5 — position and weather

sailwx.info

Track history (hours):
 
Tides and Currents Weather Stations Pressure Air Temp Water Temp Dewpoint Dewpoint Depression Visibility Wind Speed Wind Dir Waves Ship Positions

Euro

Last reported at 2017-Nov-10 01:31 UTC. Time now 2017-Nov-23 11:23 UTC.
Position N 44°21' E 037°09'.
Warning: this ship's position is 13 days out of date.

Length 274 m; draft 15.7 m.

Type: Ship (hazmat cat B). MMSI: 311073800.

Date/timePositionNaut miles runAvg speedWind from/ knotsBaromVisibWave heightAir tempDewpointWater temp
2017-Nov-10 01:31N 44°21' E 037°09'313.1
2017-Nov-10 01:18N 44°22' E 037°12'513.0
2017-Nov-10 00:57N 44°24' E 037°18'612.9
2017-Nov-10 00:30N 44°26' E 037°25'713.0
2017-Nov-10 00:00N 44°29' E 037°33'612.2
2017-Nov-09 23:30N 44°33' E 037°40'4 7.8
2017-Nov-09 23:00N 44°36' E 037°43'0 0.4
2017-Nov-09 22:30N 44°36' E 037°43'0 0.3
2017-Nov-09 22:00N 44°36' E 037°43'0 0.3
2017-Nov-09 21:30N 44°36' E 037°43'0 0.1
2017-Nov-09 21:00N 44°36' E 037°43'0 0.4
2017-Nov-09 20:30N 44°36' E 037°43'0 1.0
2017-Nov-09 20:00N 44°36' E 037°44'0 0.3
2017-Nov-09 19:30N 44°36' E 037°44'0 0.1
2017-Nov-09 19:00N 44°35' E 037°44'0 1.0
2017-Nov-09 18:30N 44°36' E 037°45'0 1.0
2017-Nov-09 18:00N 44°36' E 037°45'0 0.7
2017-Nov-09 17:30N 44°36' E 037°45'0 0.8
2017-Nov-09 17:00N 44°36' E 037°44'1 1.4
2017-Nov-09 16:30N 44°36' E 037°43'3 5.4
2017-Nov-09 16:00N 44°35' E 037°39'3 6.8
2017-Nov-09 15:30N 44°36' E 037°35'2 3.4
2017-Nov-09 15:00N 44°38' E 037°36'0 0.3
2017-Nov-09 13:48N 44°38' E 037°37'0 0.1
2017-Nov-09 13:30N 44°38' E 037°37'0 0.1
2017-Nov-09 12:57N 44°38' E 037°37'0 0.0
2017-Nov-09 12:30N 44°38' E 037°37'0 0.0
2017-Nov-09 12:00N 44°38' E 037°37'0 0.0
2017-Nov-09 11:30N 44°38' E 037°37'0 0.0
2017-Nov-09 11:00N 44°38' E 037°37'0 0.0
2017-Nov-09 10:27N 44°38' E 037°37'0 0.2
2017-Nov-09 10:00N 44°38' E 037°37'0 0.0
2017-Nov-09 09:21N 44°38' E 037°37'0 0.1
2017-Nov-09 08:54N 44°38' E 037°37'0 0.1
2017-Nov-09 08:30N 44°38' E 037°37'0 0.1
2017-Nov-09 08:00N 44°38' E 037°37'0 0.0
2017-Nov-08 18:53N 44°38' E 037°37'0 1.2
2017-Nov-08 18:30N 44°37' E 037°36'1 2.3
2017-Nov-08 18:00N 44°38' E 037°38'0 0.5
2017-Nov-08 17:28N 44°38' E 037°38'0 0.1
2017-Nov-08 14:15N 44°38' E 037°38'0 0.8
2017-Nov-08 14:00N 44°38' E 037°39'2 3.8
2017-Nov-08 13:30N 44°36' E 037°38'1 2.4
2017-Nov-08 13:00N 44°35' E 037°37'1 1.4
2017-Nov-08 12:30N 44°34' E 037°38'4 7.4
2017-Nov-08 12:00N 44°34' E 037°43'4 7.6
2017-Nov-08 11:30N 44°34' E 037°48'2 3.1
2017-Nov-08 11:00N 44°34' E 037°50'0 0.5
2017-Nov-08 10:30N 44°34' E 037°50'0 0.5
2017-Nov-08 10:00N 44°33' E 037°50'0 0.6
2017-Nov-08 09:30N 44°33' E 037°51'1 1.1
2017-Nov-08 09:00N 44°32' E 037°51'1 2.2
2017-Nov-08 08:30N 44°31' E 037°51'2 3.9
2017-Nov-08 08:00N 44°30' E 037°48'0 0.4
2017-Nov-08 07:30N 44°30' E 037°48'0 0.4
2017-Nov-08 07:00N 44°30' E 037°48'0 0.4
2017-Nov-08 06:30N 44°30' E 037°48'0 0.2
2017-Nov-08 06:00N 44°29' E 037°48'0 0.1
2017-Nov-08 05:30N 44°29' E 037°48'0 0.3
2017-Nov-08 05:00N 44°30' E 037°48'1 2.0
2017-Nov-08 04:30N 44°30' E 037°49'3 5.1
2017-Nov-08 04:00N 44°33' E 037°50'0 0.7
2017-Nov-08 03:30N 44°33' E 037°49'0 0.7
2017-Nov-08 03:00N 44°32' E 037°49'0 0.7
2017-Nov-08 02:30N 44°32' E 037°49'0 0.7
2017-Nov-08 02:00N 44°32' E 037°49'0 0.7
2017-Nov-08 01:30N 44°31' E 037°48'0 0.7
2017-Nov-08 01:00N 44°31' E 037°48'0 0.7
2017-Nov-08 00:30N 44°31' E 037°48'0 0.6
2017-Nov-08 00:00N 44°30' E 037°48'0 0.5
2017-Nov-07 23:30N 44°30' E 037°48'0 0.6
2017-Nov-07 23:00N 44°30' E 037°48'2 4.5
2017-Nov-07 22:30N 44°33' E 037°48'1 2.1
2017-Nov-07 22:00N 44°34' E 037°47'0 1.0
2017-Nov-07 21:30N 44°33' E 037°47'1 1.0
2017-Nov-07 21:00N 44°33' E 037°47'0 1.0
2017-Nov-07 20:30N 44°32' E 037°47'0 1.0
2017-Nov-07 20:00N 44°32' E 037°47'1 1.0
2017-Nov-07 19:29N 44°31' E 037°47'1 1.1
2017-Nov-07 18:59N 44°31' E 037°47'1 1.1
2017-Nov-07 18:30N 44°30' E 037°48'1 1.0
2017-Nov-07 18:00N 44°30' E 037°48'1 0.6
2017-Nov-07 17:00N 44°30' E 037°48'3 6.2
2017-Nov-07 16:30N 44°33' E 037°49'1 1.1
2017-Nov-07 16:00N 44°33' E 037°49'1 1.1
2017-Nov-07 15:30N 44°32' E 037°49'1 1.1
2017-Nov-07 15:00N 44°31' E 037°49'0 0.8
2017-Nov-07 14:30N 44°31' E 037°48'2 3.3
2017-Nov-07 14:00N 44°32' E 037°50'0 1.0
2017-Nov-07 13:30N 44°32' E 037°51'0 0.7
2017-Nov-07 13:00N 44°32' E 037°50'0 0.4
2017-Nov-07 12:30N 44°32' E 037°50'1 1.6
2017-Nov-07 12:01N 44°33' E 037°50'3 6.3
2017-Nov-07 11:30N 44°35' E 037°46'2 3.4
2017-Nov-07 11:00N 44°36' E 037°44'1 2.0
2017-Nov-07 10:30N 44°37' E 037°44'1 1.5
2017-Nov-07 10:00N 44°37' E 037°45'1 1.5
2017-Nov-07 09:30N 44°37' E 037°46'1 2.3
2017-Nov-07 09:00N 44°36' E 037°47'4 7.1
2017-Nov-07 08:30N 44°33' E 037°50'1 1.7
2017-Nov-07 08:00N 44°32' E 037°50'1 1.5
2017-Nov-07 07:30N 44°31' E 037°50'2 3.5
2017-Nov-07 07:00N 44°33' E 037°49'0 0.7
2017-Nov-07 06:30N 44°33' E 037°48'1 1.8
2017-Nov-07 06:00N 44°32' E 037°48'1 1.4
2017-Nov-07 05:30N 44°31' E 037°48'1 2.6
2017-Nov-07 05:00N 44°31' E 037°47'3 6.2
2017-Nov-07 04:30N 44°34' E 037°43'1 1.4
2017-Nov-07 04:00N 44°33' E 037°44'1 1.2
2017-Nov-07 03:30N 44°33' E 037°45'1 1.1
2017-Nov-07 03:00N 44°32' E 037°45'1 1.1
2017-Nov-07 02:30N 44°32' E 037°46'1 1.0
2017-Nov-07 02:00N 44°31' E 037°46'0 0.9
2017-Nov-07 01:30N 44°31' E 037°47'0 0.7
2017-Nov-07 01:00N 44°31' E 037°47'0 0.5
2017-Nov-07 00:30N 44°31' E 037°47'0 0.3
2017-Nov-07 00:00N 44°31' E 037°47'2 3.9
2017-Nov-06 23:30N 44°32' E 037°46'2 4.2
2017-Nov-06 23:00N 44°34' E 037°44'1 1.8
2017-Nov-06 22:30N 44°33' E 037°45'1 1.9
2017-Nov-06 22:00N 44°33' E 037°45'1 1.9
2017-Nov-06 21:30N 44°32' E 037°46'1 2.1
2017-Nov-06 21:00N 44°31' E 037°47'1 2.4
2017-Nov-06 20:30N 44°30' E 037°48'2 0.1
2017-Nov-06 02:30N 44°30' E 037°46'2 3.8
2017-Nov-06 02:00N 44°29' E 037°44'0 0.8
2017-Nov-06 01:30N 44°30' E 037°44'0 1.0
2017-Nov-06 01:00N 44°30' E 037°44'1 1.1
2017-Nov-06 00:30N 44°30' E 037°45'1 1.0
2017-Nov-06 00:00N 44°31' E 037°45'0 0.9
2017-Nov-05 23:30N 44°31' E 037°46'0 0.9
2017-Nov-05 23:00N 44°31' E 037°46'1 1.0
2017-Nov-05 22:30N 44°32' E 037°46'1 1.2
2017-Nov-05 22:00N 44°32' E 037°47'1 1.2
2017-Nov-05 21:30N 44°33' E 037°48'0 0.8
2017-Nov-05 21:00N 44°33' E 037°48'0 0.7
2017-Nov-05 20:30N 44°33' E 037°49'0 0.7
2017-Nov-05 20:00N 44°33' E 037°49'0 0.6
2017-Nov-05 19:30N 44°33' E 037°50'0 0.8
2017-Nov-05 19:00N 44°32' E 037°49'2 4.4
2017-Nov-05 18:30N 44°31' E 037°47'0 0.6
2017-Nov-05 18:00N 44°31' E 037°47'1 1.2
2017-Nov-05 17:30N 44°31' E 037°47'0 0.3
2017-Nov-05 17:00N 44°31' E 037°47'3 6.2
2017-Nov-05 16:30N 44°29' E 037°44'2 3.7
2017-Nov-05 16:00N 44°29' E 037°41'1 1.4
2017-Nov-05 15:30N 44°29' E 037°42'1 1.5
2017-Nov-05 15:00N 44°30' E 037°43'1 1.5
2017-Nov-05 14:30N 44°30' E 037°44'1 1.3
2017-Nov-05 14:00N 44°31' E 037°44'1 1.2
2017-Nov-05 13:30N 44°31' E 037°45'1 1.1
2017-Nov-05 13:00N 44°31' E 037°46'0 0.9
2017-Nov-05 12:30N 44°31' E 037°46'0 0.7
2017-Nov-05 12:00N 44°31' E 037°47'0 0.6
2017-Nov-05 11:30N 44°31' E 037°47'0 0.6
2017-Nov-05 11:00N 44°31' E 037°48'0 0.7
2017-Nov-05 10:30N 44°31' E 037°48'0 0.7
2017-Nov-05 10:00N 44°30' E 037°48'0 0.7
2017-Nov-05 09:30N 44°30' E 037°49'0 0.8
2017-Nov-05 09:00N 44°30' E 037°49'0 0.7
2017-Nov-05 08:30N 44°30' E 037°50'0 0.6
2017-Nov-05 08:00N 44°30' E 037°50'0 0.6
2017-Nov-05 07:30N 44°30' E 037°51'0 0.5
2017-Nov-05 07:00N 44°30' E 037°51'0 0.3
2017-Nov-05 06:30N 44°30' E 037°51'0 0.7
2017-Nov-05 06:00N 44°30' E 037°51'1 2.0
2017-Nov-05 05:30N 44°30' E 037°50'2 4.2
2017-Nov-05 05:00N 44°30' E 037°47'0 0.7
2017-Nov-05 04:30N 44°29' E 037°48'0 0.8
2017-Nov-05 04:00N 44°29' E 037°48'0 0.7
2017-Nov-05 03:30N 44°29' E 037°49'0 0.5
2017-Nov-05 03:00N 44°29' E 037°49'0 0.4
2017-Nov-05 02:30N 44°29' E 037°49'0 0.1
2017-Nov-05 02:00N 44°29' E 037°49'1 1.0
2017-Nov-05 01:30N 44°30' E 037°49'2 4.4
2017-Nov-05 01:00N 44°31' E 037°47'4 7.9
2017-Nov-05 00:30N 44°34' E 037°43'1 2.7
2017-Nov-05 00:00N 44°35' E 037°42'0 0.8
2017-Nov-04 23:30N 44°35' E 037°42'0 0.8
2017-Nov-04 23:00N 44°35' E 037°43'0 0.8
2017-Nov-04 22:30N 44°35' E 037°43'0 0.8
2017-Nov-04 22:00N 44°36' E 037°44'0 0.5
2017-Nov-04 21:30N 44°36' E 037°44'0 0.4
2017-Nov-04 21:00N 44°36' E 037°44'1 1.2
2017-Nov-04 20:30N 44°36' E 037°44'2 4.3
2017-Nov-04 20:00N 44°35' E 037°41'2 2.5
2017-Nov-04 19:05N 44°33' E 037°43'0 4.0
2017-Nov-04 19:00N 44°33' E 037°43'1 2.2
2017-Nov-04 18:30N 44°32' E 037°43'3 6.1
2017-Nov-04 18:00N 44°29' E 037°43'2 4.3
2017-Nov-04 17:30N 44°26' E 037°43'0 0.4
2017-Nov-04 17:00N 44°26' E 037°44'0 0.4
2017-Nov-04 16:30N 44°26' E 037°44'0 0.5
2017-Nov-04 16:00N 44°26' E 037°44'0 0.5
2017-Nov-04 15:30N 44°26' E 037°44'0 0.3
2017-Nov-04 15:00N 44°26' E 037°44'0 0.2
2017-Nov-04 14:30N 44°26' E 037°44'1 1.2
2017-Nov-04 14:00N 44°26' E 037°44'1 2.2
2017-Nov-04 13:30N 44°27' E 037°43'0 0.5
2017-Nov-04 13:00N 44°27' E 037°43'0 0.4
2017-Nov-04 12:30N 44°27' E 037°43'0 0.5
2017-Nov-04 12:00N 44°27' E 037°44'0 0.4
2017-Nov-04 11:30N 44°27' E 037°44'0 0.4
2017-Nov-04 11:00N 44°26' E 037°44'0 0.3
2017-Nov-04 10:30N 44°26' E 037°44'1 1.2
2017-Nov-04 10:00N 44°26' E 037°44'4 5.1
2017-Nov-04 09:11N 44°25' E 037°38'0 0.8
2017-Nov-04 09:00N 44°25' E 037°38'0 0.1
2017-Nov-04 08:18N 44°25' E 037°38'0 0.2
2017-Nov-04 07:59N 44°25' E 037°38'0 0.2
2017-Nov-04 07:28N 44°25' E 037°38'0 0.2
2017-Nov-04 07:00N 44°25' E 037°39'0 0.2
2017-Nov-04 06:29N 44°25' E 037°39'0 0.2
2017-Nov-04 05:58N 44°25' E 037°39'0 0.2
2017-Nov-04 05:30N 44°25' E 037°39'0 0.6
2017-Nov-04 05:00N 44°25' E 037°39'1 1.2
2017-Nov-04 04:30N 44°25' E 037°40'2 3.5
2017-Nov-04 04:00N 44°26' E 037°42'0 0.7
2017-Nov-04 03:30N 44°26' E 037°42'2 4.0
2017-Nov-04 03:00N 44°25' E 037°40'5 9.6
2017-Nov-04 02:30N 44°22' E 037°34'710.6
2017-Nov-04 01:49N 44°22' E 037°24'511.9
2017-Nov-04 01:25N 44°20' E 037°18'  
2017-Oct-31 11:13N 40°59' E 028°60'2 9.6
2017-Oct-31 11:00N 40°57' E 028°59'4 8.1
2017-Oct-31 10:28N 40°54' E 028°56'4 8.5
2017-Oct-31 10:00N 40°51' E 028°52'1 1.6
2017-Oct-31 09:19N 40°50' E 028°53'0 0.5
2017-Oct-31 08:57N 40°50' E 028°53'1 2.0
2017-Oct-31 08:26N 40°49' E 028°53'2 1.2
2017-Oct-31 06:29N 40°47' E 028°55'0 0.1
2017-Oct-31 04:54N 40°47' E 028°55'2 2.4
2017-Oct-31 03:58N 40°49' E 028°54'0 0.2
2017-Oct-31 03:07N 40°49' E 028°55'0 0.5
2017-Oct-31 02:56N 40°49' E 028°55'0 0.5
2017-Oct-31 02:26N 40°49' E 028°55'0 0.7
2017-Oct-31 01:59N 40°48' E 028°55'  
Track history (hours):
 
Tides and Currents Weather Stations Pressure Air Temp Water Temp Dewpoint Dewpoint Depression Visibility Wind Speed Wind Dir Waves Ship Positions

Euro

Last reported at 2017-Nov-10 01:31 UTC. Time now 2017-Nov-23 11:23 UTC.
Position N 44°21' E 037°09'.
Warning: this ship's position is 13 days out of date.

Length 274 m; draft 15.7 m.

Type: Ship (hazmat cat B). MMSI: 311073800.

Date/timePositionNaut miles runAvg speedWind from/ knotsBaromVisibWave heightAir tempDewpointWater temp
2017-Nov-10 01:31N 44°21' E 037°09'313.1
2017-Nov-10 01:18N 44°22' E 037°12'513.0
2017-Nov-10 00:57N 44°24' E 037°18'612.9
2017-Nov-10 00:30N 44°26' E 037°25'713.0
2017-Nov-10 00:00N 44°29' E 037°33'612.2
2017-Nov-09 23:30N 44°33' E 037°40'4 7.8
2017-Nov-09 23:00N 44°36' E 037°43'0 0.4
2017-Nov-09 22:30N 44°36' E 037°43'0 0.3
2017-Nov-09 22:00N 44°36' E 037°43'0 0.3
2017-Nov-09 21:30N 44°36' E 037°43'0 0.1
2017-Nov-09 21:00N 44°36' E 037°43'0 0.4
2017-Nov-09 20:30N 44°36' E 037°43'0 1.0
2017-Nov-09 20:00N 44°36' E 037°44'0 0.3
2017-Nov-09 19:30N 44°36' E 037°44'0 0.1
2017-Nov-09 19:00N 44°35' E 037°44'0 1.0
2017-Nov-09 18:30N 44°36' E 037°45'0 1.0
2017-Nov-09 18:00N 44°36' E 037°45'0 0.7
2017-Nov-09 17:30N 44°36' E 037°45'0 0.8
2017-Nov-09 17:00N 44°36' E 037°44'1 1.4
2017-Nov-09 16:30N 44°36' E 037°43'3 5.4
2017-Nov-09 16:00N 44°35' E 037°39'3 6.8
2017-Nov-09 15:30N 44°36' E 037°35'2 3.4
2017-Nov-09 15:00N 44°38' E 037°36'0 0.3
2017-Nov-09 13:48N 44°38' E 037°37'0 0.1
2017-Nov-09 13:30N 44°38' E 037°37'0 0.1
2017-Nov-09 12:57N 44°38' E 037°37'0 0.0
2017-Nov-09 12:30N 44°38' E 037°37'0 0.0
2017-Nov-09 12:00N 44°38' E 037°37'0 0.0
2017-Nov-09 11:30N 44°38' E 037°37'0 0.0
2017-Nov-09 11:00N 44°38' E 037°37'0 0.0
2017-Nov-09 10:27N 44°38' E 037°37'0 0.2
2017-Nov-09 10:00N 44°38' E 037°37'0 0.0
2017-Nov-09 09:21N 44°38' E 037°37'0 0.1
2017-Nov-09 08:54N 44°38' E 037°37'0 0.1
2017-Nov-09 08:30N 44°38' E 037°37'0 0.1
2017-Nov-09 08:00N 44°38' E 037°37'0 0.0
2017-Nov-08 18:53N 44°38' E 037°37'0 1.2
2017-Nov-08 18:30N 44°37' E 037°36'1 2.3
2017-Nov-08 18:00N 44°38' E 037°38'0 0.5
2017-Nov-08 17:28N 44°38' E 037°38'0 0.1
2017-Nov-08 14:15N 44°38' E 037°38'0 0.8
2017-Nov-08 14:00N 44°38' E 037°39'2 3.8
2017-Nov-08 13:30N 44°36' E 037°38'1 2.4
2017-Nov-08 13:00N 44°35' E 037°37'1 1.4
2017-Nov-08 12:30N 44°34' E 037°38'4 7.4
2017-Nov-08 12:00N 44°34' E 037°43'4 7.6
2017-Nov-08 11:30N 44°34' E 037°48'2 3.1
2017-Nov-08 11:00N 44°34' E 037°50'0 0.5
2017-Nov-08 10:30N 44°34' E 037°50'0 0.5
2017-Nov-08 10:00N 44°33' E 037°50'0 0.6
2017-Nov-08 09:30N 44°33' E 037°51'1 1.1
2017-Nov-08 09:00N 44°32' E 037°51'1 2.2
2017-Nov-08 08:30N 44°31' E 037°51'2 3.9
2017-Nov-08 08:00N 44°30' E 037°48'0 0.4
2017-Nov-08 07:30N 44°30' E 037°48'0 0.4
2017-Nov-08 07:00N 44°30' E 037°48'0 0.4
2017-Nov-08 06:30N 44°30' E 037°48'0 0.2
2017-Nov-08 06:00N 44°29' E 037°48'0 0.1
2017-Nov-08 05:30N 44°29' E 037°48'0 0.3
2017-Nov-08 05:00N 44°30' E 037°48'1 2.0
2017-Nov-08 04:30N 44°30' E 037°49'3 5.1
2017-Nov-08 04:00N 44°33' E 037°50'0 0.7
2017-Nov-08 03:30N 44°33' E 037°49'0 0.7
2017-Nov-08 03:00N 44°32' E 037°49'0 0.7
2017-Nov-08 02:30N 44°32' E 037°49'0 0.7
2017-Nov-08 02:00N 44°32' E 037°49'0 0.7
2017-Nov-08 01:30N 44°31' E 037°48'0 0.7
2017-Nov-08 01:00N 44°31' E 037°48'0 0.7
2017-Nov-08 00:30N 44°31' E 037°48'0 0.6
2017-Nov-08 00:00N 44°30' E 037°48'0 0.5
2017-Nov-07 23:30N 44°30' E 037°48'0 0.6
2017-Nov-07 23:00N 44°30' E 037°48'2 4.5
2017-Nov-07 22:30N 44°33' E 037°48'1 2.1
2017-Nov-07 22:00N 44°34' E 037°47'0 1.0
2017-Nov-07 21:30N 44°33' E 037°47'1 1.0
2017-Nov-07 21:00N 44°33' E 037°47'0 1.0
2017-Nov-07 20:30N 44°32' E 037°47'0 1.0
2017-Nov-07 20:00N 44°32' E 037°47'1 1.0
2017-Nov-07 19:29N 44°31' E 037°47'1 1.1
2017-Nov-07 18:59N 44°31' E 037°47'1 1.1
2017-Nov-07 18:30N 44°30' E 037°48'1 1.0
2017-Nov-07 18:00N 44°30' E 037°48'1 0.6
2017-Nov-07 17:00N 44°30' E 037°48'3 6.2
2017-Nov-07 16:30N 44°33' E 037°49'1 1.1
2017-Nov-07 16:00N 44°33' E 037°49'1 1.1
2017-Nov-07 15:30N 44°32' E 037°49'1 1.1
2017-Nov-07 15:00N 44°31' E 037°49'0 0.8
2017-Nov-07 14:30N 44°31' E 037°48'2 3.3
2017-Nov-07 14:00N 44°32' E 037°50'0 1.0
2017-Nov-07 13:30N 44°32' E 037°51'0 0.7
2017-Nov-07 13:00N 44°32' E 037°50'0 0.4
2017-Nov-07 12:30N 44°32' E 037°50'1 1.6
2017-Nov-07 12:01N 44°33' E 037°50'3 6.3
2017-Nov-07 11:30N 44°35' E 037°46'2 3.4
2017-Nov-07 11:00N 44°36' E 037°44'1 2.0
2017-Nov-07 10:30N 44°37' E 037°44'1 1.5
2017-Nov-07 10:00N 44°37' E 037°45'1 1.5
2017-Nov-07 09:30N 44°37' E 037°46'1 2.3
2017-Nov-07 09:00N 44°36' E 037°47'4 7.1
2017-Nov-07 08:30N 44°33' E 037°50'1 1.7
2017-Nov-07 08:00N 44°32' E 037°50'1 1.5
2017-Nov-07 07:30N 44°31' E 037°50'2 3.5
2017-Nov-07 07:00N 44°33' E 037°49'0 0.7
2017-Nov-07 06:30N 44°33' E 037°48'1 1.8
2017-Nov-07 06:00N 44°32' E 037°48'1 1.4
2017-Nov-07 05:30N 44°31' E 037°48'1 2.6
2017-Nov-07 05:00N 44°31' E 037°47'3 6.2
2017-Nov-07 04:30N 44°34' E 037°43'1 1.4
2017-Nov-07 04:00N 44°33' E 037°44'1 1.2
2017-Nov-07 03:30N 44°33' E 037°45'1 1.1
2017-Nov-07 03:00N 44°32' E 037°45'1 1.1
2017-Nov-07 02:30N 44°32' E 037°46'1 1.0
2017-Nov-07 02:00N 44°31' E 037°46'0 0.9
2017-Nov-07 01:30N 44°31' E 037°47'0 0.7
2017-Nov-07 01:00N 44°31' E 037°47'0 0.5
2017-Nov-07 00:30N 44°31' E 037°47'0 0.3
2017-Nov-07 00:00N 44°31' E 037°47'2 3.9
2017-Nov-06 23:30N 44°32' E 037°46'2 4.2
2017-Nov-06 23:00N 44°34' E 037°44'1 1.8
2017-Nov-06 22:30N 44°33' E 037°45'1 1.9
2017-Nov-06 22:00N 44°33' E 037°45'1 1.9
2017-Nov-06 21:30N 44°32' E 037°46'1 2.1
2017-Nov-06 21:00N 44°31' E 037°47'1 2.4
2017-Nov-06 20:30N 44°30' E 037°48'2 0.1
2017-Nov-06 02:30N 44°30' E 037°46'2 3.8
2017-Nov-06 02:00N 44°29' E 037°44'0 0.8
2017-Nov-06 01:30N 44°30' E 037°44'0 1.0
2017-Nov-06 01:00N 44°30' E 037°44'1 1.1
2017-Nov-06 00:30N 44°30' E 037°45'1 1.0
2017-Nov-06 00:00N 44°31' E 037°45'0 0.9
2017-Nov-05 23:30N 44°31' E 037°46'0 0.9
2017-Nov-05 23:00N 44°31' E 037°46'1 1.0
2017-Nov-05 22:30N 44°32' E 037°46'1 1.2
2017-Nov-05 22:00N 44°32' E 037°47'1 1.2
2017-Nov-05 21:30N 44°33' E 037°48'0 0.8
2017-Nov-05 21:00N 44°33' E 037°48'0 0.7
2017-Nov-05 20:30N 44°33' E 037°49'0 0.7
2017-Nov-05 20:00N 44°33' E 037°49'0 0.6
2017-Nov-05 19:30N 44°33' E 037°50'0 0.8
2017-Nov-05 19:00N 44°32' E 037°49'2 4.4
2017-Nov-05 18:30N 44°31' E 037°47'0 0.6
2017-Nov-05 18:00N 44°31' E 037°47'1 1.2
2017-Nov-05 17:30N 44°31' E 037°47'0 0.3
2017-Nov-05 17:00N 44°31' E 037°47'3 6.2
2017-Nov-05 16:30N 44°29' E 037°44'2 3.7
2017-Nov-05 16:00N 44°29' E 037°41'1 1.4
2017-Nov-05 15:30N 44°29' E 037°42'1 1.5
2017-Nov-05 15:00N 44°30' E 037°43'1 1.5
2017-Nov-05 14:30N 44°30' E 037°44'1 1.3
2017-Nov-05 14:00N 44°31' E 037°44'1 1.2
2017-Nov-05 13:30N 44°31' E 037°45'1 1.1
2017-Nov-05 13:00N 44°31' E 037°46'0 0.9
2017-Nov-05 12:30N 44°31' E 037°46'0 0.7
2017-Nov-05 12:00N 44°31' E 037°47'0 0.6
2017-Nov-05 11:30N 44°31' E 037°47'0 0.6
2017-Nov-05 11:00N 44°31' E 037°48'0 0.7
2017-Nov-05 10:30N 44°31' E 037°48'0 0.7
2017-Nov-05 10:00N 44°30' E 037°48'0 0.7
2017-Nov-05 09:30N 44°30' E 037°49'0 0.8
2017-Nov-05 09:00N 44°30' E 037°49'0 0.7
2017-Nov-05 08:30N 44°30' E 037°50'0 0.6
2017-Nov-05 08:00N 44°30' E 037°50'0 0.6
2017-Nov-05 07:30N 44°30' E 037°51'0 0.5
2017-Nov-05 07:00N 44°30' E 037°51'0 0.3
2017-Nov-05 06:30N 44°30' E 037°51'0 0.7
2017-Nov-05 06:00N 44°30' E 037°51'1 2.0
2017-Nov-05 05:30N 44°30' E 037°50'2 4.2
2017-Nov-05 05:00N 44°30' E 037°47'0 0.7
2017-Nov-05 04:30N 44°29' E 037°48'0 0.8
2017-Nov-05 04:00N 44°29' E 037°48'0 0.7
2017-Nov-05 03:30N 44°29' E 037°49'0 0.5
2017-Nov-05 03:00N 44°29' E 037°49'0 0.4
2017-Nov-05 02:30N 44°29' E 037°49'0 0.1
2017-Nov-05 02:00N 44°29' E 037°49'1 1.0
2017-Nov-05 01:30N 44°30' E 037°49'2 4.4
2017-Nov-05 01:00N 44°31' E 037°47'4 7.9
2017-Nov-05 00:30N 44°34' E 037°43'1 2.7
2017-Nov-05 00:00N 44°35' E 037°42'0 0.8
2017-Nov-04 23:30N 44°35' E 037°42'0 0.8
2017-Nov-04 23:00N 44°35' E 037°43'0 0.8
2017-Nov-04 22:30N 44°35' E 037°43'0 0.8
2017-Nov-04 22:00N 44°36' E 037°44'0 0.5
2017-Nov-04 21:30N 44°36' E 037°44'0 0.4
2017-Nov-04 21:00N 44°36' E 037°44'1 1.2
2017-Nov-04 20:30N 44°36' E 037°44'2 4.3
2017-Nov-04 20:00N 44°35' E 037°41'2 2.5
2017-Nov-04 19:05N 44°33' E 037°43'0 4.0
2017-Nov-04 19:00N 44°33' E 037°43'1 2.2
2017-Nov-04 18:30N 44°32' E 037°43'3 6.1
2017-Nov-04 18:00N 44°29' E 037°43'2 4.3
2017-Nov-04 17:30N 44°26' E 037°43'0 0.4
2017-Nov-04 17:00N 44°26' E 037°44'0 0.4
2017-Nov-04 16:30N 44°26' E 037°44'0 0.5
2017-Nov-04 16:00N 44°26' E 037°44'0 0.5
2017-Nov-04 15:30N 44°26' E 037°44'0 0.3
2017-Nov-04 15:00N 44°26' E 037°44'0 0.2
2017-Nov-04 14:30N 44°26' E 037°44'1 1.2
2017-Nov-04 14:00N 44°26' E 037°44'1 2.2
2017-Nov-04 13:30N 44°27' E 037°43'0 0.5
2017-Nov-04 13:00N 44°27' E 037°43'0 0.4
2017-Nov-04 12:30N 44°27' E 037°43'0 0.5
2017-Nov-04 12:00N 44°27' E 037°44'0 0.4
2017-Nov-04 11:30N 44°27' E 037°44'0 0.4
2017-Nov-04 11:00N 44°26' E 037°44'0 0.3
2017-Nov-04 10:30N 44°26' E 037°44'1 1.2
2017-Nov-04 10:00N 44°26' E 037°44'4 5.1
2017-Nov-04 09:11N 44°25' E 037°38'0 0.8
2017-Nov-04 09:00N 44°25' E 037°38'0 0.1
2017-Nov-04 08:18N 44°25' E 037°38'0 0.2
2017-Nov-04 07:59N 44°25' E 037°38'0 0.2
2017-Nov-04 07:28N 44°25' E 037°38'0 0.2
2017-Nov-04 07:00N 44°25' E 037°39'0 0.2
2017-Nov-04 06:29N 44°25' E 037°39'0 0.2
2017-Nov-04 05:58N 44°25' E 037°39'0 0.2
2017-Nov-04 05:30N 44°25' E 037°39'0 0.6
2017-Nov-04 05:00N 44°25' E 037°39'1 1.2
2017-Nov-04 04:30N 44°25' E 037°40'2 3.5
2017-Nov-04 04:00N 44°26' E 037°42'0 0.7
2017-Nov-04 03:30N 44°26' E 037°42'2 4.0
2017-Nov-04 03:00N 44°25' E 037°40'5 9.6
2017-Nov-04 02:30N 44°22' E 037°34'710.6
2017-Nov-04 01:49N 44°22' E 037°24'511.9
2017-Nov-04 01:25N 44°20' E 037°18'  
2017-Oct-31 11:13N 40°59' E 028°60'2 9.6
2017-Oct-31 11:00N 40°57' E 028°59'4 8.1
2017-Oct-31 10:28N 40°54' E 028°56'4 8.5
2017-Oct-31 10:00N 40°51' E 028°52'1 1.6
2017-Oct-31 09:19N 40°50' E 028°53'0 0.5
2017-Oct-31 08:57N 40°50' E 028°53'1 2.0
2017-Oct-31 08:26N 40°49' E 028°53'2 1.2
2017-Oct-31 06:29N 40°47' E 028°55'0 0.1
2017-Oct-31 04:54N 40°47' E 028°55'2 2.4
2017-Oct-31 03:58N 40°49' E 028°54'0 0.2
2017-Oct-31 03:07N 40°49' E 028°55'0 0.5
2017-Oct-31 02:56N 40°49' E 028°55'0 0.5
2017-Oct-31 02:26N 40°49' E 028°55'0 0.7
2017-Oct-31 01:59N 40°48' E 028°55'  

Dump ship's entire track history